sensor_id;sensor_type;location;lat;lon;timestamp;pressure;altitude;pressure_sealevel;temperature;humidity
38225;BME280;24025;48.138;11.428;2022-07-15T00:00:57;95780.66;;;22.41;45.24
38225;BME280;24025;48.138;11.428;2022-07-15T00:03:28;95770.97;;;22.40;45.26
38225;BME280;24025;48.138;11.428;2022-07-15T00:05:58;95776.72;;;22.42;44.49
38225;BME280;24025;48.138;11.428;2022-07-15T00:08:29;95774.88;;;22.39;44.81
38225;BME280;24025;48.138;11.428;2022-07-15T00:10:59;95775.09;;;22.32;44.70
38225;BME280;24025;48.138;11.428;2022-07-15T00:13:30;95772.72;;;22.05;44.97
38225;BME280;24025;48.138;11.428;2022-07-15T00:16:01;95775.56;;;22.01;45.02
38225;BME280;24025;48.138;11.428;2022-07-15T00:18:32;95787.22;;;21.86;45.71
38225;BME280;24025;48.138;11.428;2022-07-15T00:21:03;95779.09;;;21.86;45.74
38225;BME280;24025;48.138;11.428;2022-07-15T00:23:33;95764.91;;;21.65;46.33
38225;BME280;24025;48.138;11.428;2022-07-15T00:26:03;95782.78;;;21.63;46.45
38225;BME280;24025;48.138;11.428;2022-07-15T00:28:34;95794.50;;;21.60;47.67
38225;BME280;24025;48.138;11.428;2022-07-15T00:31:05;95780.50;;;21.61;48.93
38225;BME280;24025;48.138;11.428;2022-07-15T00:33:35;95777.91;;;21.58;48.63
38225;BME280;24025;48.138;11.428;2022-07-15T00:36:06;95769.81;;;21.54;50.63
38225;BME280;24025;48.138;11.428;2022-07-15T00:38:36;95768.75;;;21.52;51.70
38225;BME280;24025;48.138;11.428;2022-07-15T00:41:07;95757.56;;;21.49;51.15
38225;BME280;24025;48.138;11.428;2022-07-15T00:43:39;95766.88;;;21.48;51.61
38225;BME280;24025;48.138;11.428;2022-07-15T00:46:15;95779.19;;;21.37;52.60
38225;BME280;24025;48.138;11.428;2022-07-15T00:48:46;95806.31;;;21.20;53.31
38225;BME280;24025;48.138;11.428;2022-07-15T00:51:16;95800.19;;;21.16;53.71
38225;BME280;24025;48.138;11.428;2022-07-15T00:53:47;95784.97;;;21.06;57.84
38225;BME280;24025;48.138;11.428;2022-07-15T00:56:21;95783.50;;;21.02;54.67
38225;BME280;24025;48.138;11.428;2022-07-15T00:58:53;95785.72;;;20.90;58.26
38225;BME280;24025;48.138;11.428;2022-07-15T01:01:24;95777.72;;;20.83;63.25
38225;BME280;24025;48.138;11.428;2022-07-15T01:03:55;95763.34;;;20.86;60.82
38225;BME280;24025;48.138;11.428;2022-07-15T01:06:25;95771.56;;;20.83;60.81
38225;BME280;24025;48.138;11.428;2022-07-15T01:08:58;95765.38;;;20.82;63.00
38225;BME280;24025;48.138;11.428;2022-07-15T01:11:28;95767.84;;;20.77;64.92
38225;BME280;24025;48.138;11.428;2022-07-15T01:14:02;95772.50;;;20.76;63.12
38225;BME280;24025;48.138;11.428;2022-07-15T01:16:33;95779.06;;;20.75;62.49
38225;BME280;24025;48.138;11.428;2022-07-15T01:19:03;95778.69;;;20.77;63.79
38225;BME280;24025;48.138;11.428;2022-07-15T01:21:34;95793.00;;;20.77;63.26
38225;BME280;24025;48.138;11.428;2022-07-15T01:24:05;95797.28;;;20.75;65.49
38225;BME280;24025;48.138;11.428;2022-07-15T01:26:36;95793.75;;;20.78;63.72
38225;BME280;24025;48.138;11.428;2022-07-15T01:29:06;95789.53;;;20.77;62.45
38225;BME280;24025;48.138;11.428;2022-07-15T01:31:36;95785.34;;;20.72;63.83
38225;BME280;24025;48.138;11.428;2022-07-15T01:34:07;95782.22;;;20.74;64.44
38225;BME280;24025;48.138;11.428;2022-07-15T01:36:37;95784.16;;;20.73;65.21
38225;BME280;24025;48.138;11.428;2022-07-15T01:39:08;95787.41;;;20.68;63.58
38225;BME280;24025;48.138;11.428;2022-07-15T01:41:38;95787.56;;;20.61;68.21
38225;BME280;24025;48.138;11.428;2022-07-15T01:44:09;95782.88;;;20.61;66.28
38225;BME280;24025;48.138;11.428;2022-07-15T01:46:41;95793.72;;;20.61;63.73
38225;BME280;24025;48.138;11.428;2022-07-15T01:49:11;95797.78;;;20.53;61.29
38225;BME280;24025;48.138;11.428;2022-07-15T01:52:01;95788.13;;;20.52;61.97
38225;BME280;24025;48.138;11.428;2022-07-15T01:54:32;95782.91;;;20.42;59.96
38225;BME280;24025;48.138;11.428;2022-07-15T01:57:02;95779.84;;;20.40;60.69
38225;BME280;24025;48.138;11.428;2022-07-15T01:59:33;95777.84;;;20.44;62.23
38225;BME280;24025;48.138;11.428;2022-07-15T02:02:03;95778.81;;;20.33;61.96
38225;BME280;24025;48.138;11.428;2022-07-15T02:04:34;95783.53;;;20.29;59.17
38225;BME280;24025;48.138;11.428;2022-07-15T02:07:04;95779.53;;;20.18;57.73
38225;BME280;24025;48.138;11.428;2022-07-15T02:09:35;95775.22;;;20.20;60.23
38225;BME280;24025;48.138;11.428;2022-07-15T02:12:06;95787.16;;;20.23;59.72
38225;BME280;24025;48.138;11.428;2022-07-15T02:14:36;95788.75;;;20.20;60.25
38225;BME280;24025;48.138;11.428;2022-07-15T02:17:07;95787.66;;;20.18;60.74
38225;BME280;24025;48.138;11.428;2022-07-15T02:19:37;95788.41;;;20.18;59.22
38225;BME280;24025;48.138;11.428;2022-07-15T02:22:08;95788.50;;;20.15;59.21
38225;BME280;24025;48.138;11.428;2022-07-15T02:24:38;95785.28;;;20.20;60.56
38225;BME280;24025;48.138;11.428;2022-07-15T02:27:09;95780.09;;;20.09;58.66
38225;BME280;24025;48.138;11.428;2022-07-15T02:29:39;95782.47;;;20.07;59.08
38225;BME280;24025;48.138;11.428;2022-07-15T02:32:10;95786.06;;;20.00;58.69
38225;BME280;24025;48.138;11.428;2022-07-15T02:34:41;95782.09;;;20.05;57.48
38225;BME280;24025;48.138;11.428;2022-07-15T02:37:11;95780.94;;;20.06;56.97
38225;BME280;24025;48.138;11.428;2022-07-15T02:39:41;95786.41;;;20.02;56.59
38225;BME280;24025;48.138;11.428;2022-07-15T02:42:12;95786.50;;;19.99;57.21
38225;BME280;24025;48.138;11.428;2022-07-15T02:44:42;95794.53;;;20.02;58.04
38225;BME280;24025;48.138;11.428;2022-07-15T02:47:12;95793.47;;;19.96;55.99
38225;BME280;24025;48.138;11.428;2022-07-15T02:49:43;95790.63;;;19.84;55.88
38225;BME280;24025;48.138;11.428;2022-07-15T02:52:14;95798.28;;;19.89;58.26
38225;BME280;24025;48.138;11.428;2022-07-15T02:54:44;95804.03;;;19.71;55.57
38225;BME280;24025;48.138;11.428;2022-07-15T02:57:15;95804.72;;;19.75;57.99
38225;BME280;24025;48.138;11.428;2022-07-15T02:59:45;95803.28;;;19.70;56.28
38225;BME280;24025;48.138;11.428;2022-07-15T03:02:15;95800.28;;;19.65;54.88
38225;BME280;24025;48.138;11.428;2022-07-15T03:04:46;95798.16;;;19.52;55.29
38225;BME280;24025;48.138;11.428;2022-07-15T03:07:17;95802.78;;;19.52;55.65
38225;BME280;24025;48.138;11.428;2022-07-15T03:09:47;95806.84;;;19.40;55.78
38225;BME280;24025;48.138;11.428;2022-07-15T03:12:18;95818.16;;;19.35;54.77
38225;BME280;24025;48.138;11.428;2022-07-15T03:14:49;95819.06;;;19.25;53.69
38225;BME280;24025;48.138;11.428;2022-07-15T03:17:19;95822.66;;;19.18;53.66
38225;BME280;24025;48.138;11.428;2022-07-15T03:19:50;95827.78;;;19.13;54.66
38225;BME280;24025;48.138;11.428;2022-07-15T03:22:21;95815.78;;;19.14;55.22
38225;BME280;24025;48.138;11.428;2022-07-15T03:24:52;95816.53;;;19.14;54.35
38225;BME280;24025;48.138;11.428;2022-07-15T03:27:22;95819.97;;;19.18;54.66
38225;BME280;24025;48.138;11.428;2022-07-15T03:29:53;95827.31;;;19.18;54.82
38225;BME280;24025;48.138;11.428;2022-07-15T03:32:23;95828.47;;;19.17;54.49
38225;BME280;24025;48.138;11.428;2022-07-15T03:34:53;95830.72;;;19.22;54.90
38225;BME280;24025;48.138;11.428;2022-07-15T03:37:26;95828.47;;;19.17;54.60
38225;BME280;24025;48.138;11.428;2022-07-15T03:39:57;95838.78;;;18.99;52.79
38225;BME280;24025;48.138;11.428;2022-07-15T03:42:27;95839.00;;;19.11;54.79
38225;BME280;24025;48.138;11.428;2022-07-15T03:44:58;95837.00;;;19.15;54.98
38225;BME280;24025;48.138;11.428;2022-07-15T03:47:28;95833.84;;;19.20;54.63
38225;BME280;24025;48.138;11.428;2022-07-15T03:49:59;95839.56;;;19.26;55.00
38225;BME280;24025;48.138;11.428;2022-07-15T03:52:30;95833.72;;;19.28;55.26
38225;BME280;24025;48.138;11.428;2022-07-15T03:55:00;95832.56;;;19.29;55.13
38225;BME280;24025;48.138;11.428;2022-07-15T03:57:30;95829.31;;;19.37;54.75
38225;BME280;24025;48.138;11.428;2022-07-15T04:00:02;95832.72;;;19.41;54.73
38225;BME280;24025;48.138;11.428;2022-07-15T04:02:32;95834.66;;;19.41;53.92
38225;BME280;24025;48.138;11.428;2022-07-15T04:05:03;95832.28;;;19.43;54.58
38225;BME280;24025;48.138;11.428;2022-07-15T04:07:33;95832.72;;;19.41;53.60
38225;BME280;24025;48.138;11.428;2022-07-15T04:10:04;95838.53;;;19.40;54.04
38225;BME280;24025;48.138;11.428;2022-07-15T04:12:35;95835.19;;;19.32;53.42
38225;BME280;24025;48.138;11.428;2022-07-15T04:15:06;95832.59;;;19.25;52.15
38225;BME280;24025;48.138;11.428;2022-07-15T04:17:36;95842.13;;;19.33;52.50
38225;BME280;24025;48.138;11.428;2022-07-15T04:20:08;95841.34;;;19.33;52.45
38225;BME280;24025;48.138;11.428;2022-07-15T04:22:42;95836.06;;;19.25;52.21
38225;BME280;24025;48.138;11.428;2022-07-15T04:25:19;95841.47;;;19.25;51.70
38225;BME280;24025;48.138;11.428;2022-07-15T04:27:49;95845.59;;;19.34;52.51
38225;BME280;24025;48.138;11.428;2022-07-15T04:30:20;95841.72;;;19.35;52.90
38225;BME280;24025;48.138;11.428;2022-07-15T04:32:50;95845.13;;;19.39;51.66
38225;BME280;24025;48.138;11.428;2022-07-15T04:35:21;95840.78;;;19.45;51.70
38225;BME280;24025;48.138;11.428;2022-07-15T04:37:51;95841.19;;;19.43;51.92
38225;BME280;24025;48.138;11.428;2022-07-15T04:40:21;95841.97;;;19.44;51.93
38225;BME280;24025;48.138;11.428;2022-07-15T04:42:52;95840.03;;;19.44;51.56
38225;BME280;24025;48.138;11.428;2022-07-15T04:45:22;95843.41;;;19.48;51.88
38225;BME280;24025;48.138;11.428;2022-07-15T04:47:53;95839.50;;;19.53;50.78
38225;BME280;24025;48.138;11.428;2022-07-15T04:50:23;95836.31;;;19.58;51.24
38225;BME280;24025;48.138;11.428;2022-07-15T04:53:12;95834.28;;;19.66;50.23
38225;BME280;24025;48.138;11.428;2022-07-15T04:55:43;95832.31;;;19.66;50.99
38225;BME280;24025;48.138;11.428;2022-07-15T04:58:13;95832.25;;;19.70;49.62
38225;BME280;24025;48.138;11.428;2022-07-15T05:00:45;95841.78;;;19.78;50.72
38225;BME280;24025;48.138;11.428;2022-07-15T05:03:16;95837.50;;;19.80;51.06
38225;BME280;24025;48.138;11.428;2022-07-15T05:05:46;95839.22;;;19.91;50.71
38225;BME280;24025;48.138;11.428;2022-07-15T05:08:17;95843.88;;;19.90;50.15
38225;BME280;24025;48.138;11.428;2022-07-15T05:10:47;95846.09;;;19.95;50.26
38225;BME280;24025;48.138;11.428;2022-07-15T05:13:18;95851.38;;;19.83;48.70
38225;BME280;24025;48.138;11.428;2022-07-15T05:15:48;95849.41;;;19.63;49.84
38225;BME280;24025;48.138;11.428;2022-07-15T05:18:19;95853.13;;;19.69;49.62
38225;BME280;24025;48.138;11.428;2022-07-15T05:20:49;95847.25;;;19.74;49.98
38225;BME280;24025;48.138;11.428;2022-07-15T05:23:20;95854.06;;;19.83;49.34
38225;BME280;24025;48.138;11.428;2022-07-15T05:25:51;95855.47;;;19.91;49.35
38225;BME280;24025;48.138;11.428;2022-07-15T05:28:21;95857.69;;;19.96;49.28
38225;BME280;24025;48.138;11.428;2022-07-15T05:30:52;95849.44;;;20.03;49.52
38225;BME280;24025;48.138;11.428;2022-07-15T05:33:22;95861.31;;;20.09;48.62
38225;BME280;24025;48.138;11.428;2022-07-15T05:35:53;95863.53;;;20.14;49.36
38225;BME280;24025;48.138;11.428;2022-07-15T05:38:23;95861.69;;;19.88;48.45
38225;BME280;24025;48.138;11.428;2022-07-15T05:40:53;95874.13;;;19.85;48.41
38225;BME280;24025;48.138;11.428;2022-07-15T05:43:24;95877.13;;;19.44;48.52
38225;BME280;24025;48.138;11.428;2022-07-15T05:45:54;95875.16;;;19.71;49.15
38225;BME280;24025;48.138;11.428;2022-07-15T05:48:25;95875.31;;;19.84;48.93
38225;BME280;24025;48.138;11.428;2022-07-15T05:50:55;95878.78;;;19.61;48.48
38225;BME280;24025;48.138;11.428;2022-07-15T05:53:26;95881.09;;;19.63;48.32
38225;BME280;24025;48.138;11.428;2022-07-15T05:55:57;95875.16;;;19.71;49.04
38225;BME280;24025;48.138;11.428;2022-07-15T05:58:27;95880.78;;;19.80;49.62
38225;BME280;24025;48.138;11.428;2022-07-15T06:00:58;95892.66;;;19.87;48.74
38225;BME280;24025;48.138;11.428;2022-07-15T06:03:28;95884.94;;;19.85;48.25
38225;BME280;24025;48.138;11.428;2022-07-15T06:05:59;95889.47;;;19.92;47.86
38225;BME280;24025;48.138;11.428;2022-07-15T06:08:29;95889.78;;;19.97;48.35
38225;BME280;24025;48.138;11.428;2022-07-15T06:11:01;95893.91;;;20.05;47.87
38225;BME280;24025;48.138;11.428;2022-07-15T06:13:31;95890.97;;;20.16;47.29
38225;BME280;24025;48.138;11.428;2022-07-15T06:16:01;95892.00;;;20.22;46.96
38225;BME280;24025;48.138;11.428;2022-07-15T06:18:32;95888.91;;;20.24;46.19
38225;BME280;24025;48.138;11.428;2022-07-15T06:21:02;95886.59;;;20.22;45.66
38225;BME280;24025;48.138;11.428;2022-07-15T06:23:33;95892.31;;;20.28;46.41
38225;BME280;24025;48.138;11.428;2022-07-15T06:26:03;95891.09;;;20.09;46.33
38225;BME280;24025;48.138;11.428;2022-07-15T06:28:33;95890.47;;;20.21;46.67
38225;BME280;24025;48.138;11.428;2022-07-15T06:31:04;95891.97;;;20.26;46.10
38225;BME280;24025;48.138;11.428;2022-07-15T06:33:35;95889.13;;;20.33;45.81
38225;BME280;24025;48.138;11.428;2022-07-15T06:36:05;95885.81;;;20.45;46.32
38225;BME280;24025;48.138;11.428;2022-07-15T06:38:36;95894.47;;;20.56;45.70
38225;BME280;24025;48.138;11.428;2022-07-15T06:41:06;95898.00;;;20.73;44.23
38225;BME280;24025;48.138;11.428;2022-07-15T06:43:37;95895.00;;;20.87;43.77
38225;BME280;24025;48.138;11.428;2022-07-15T06:46:07;95898.97;;;20.83;43.30
38225;BME280;24025;48.138;11.428;2022-07-15T06:48:38;95894.00;;;20.98;43.22
38225;BME280;24025;48.138;11.428;2022-07-15T06:51:09;95895.38;;;21.06;43.18
38225;BME280;24025;48.138;11.428;2022-07-15T06:53:41;95902.34;;;21.07;41.98
38225;BME280;24025;48.138;11.428;2022-07-15T06:56:12;95901.72;;;20.99;42.57
38225;BME280;24025;48.138;11.428;2022-07-15T06:58:43;95907.91;;;21.00;43.53
38225;BME280;24025;48.138;11.428;2022-07-15T07:01:13;95907.22;;;20.96;42.78
38225;BME280;24025;48.138;11.428;2022-07-15T07:03:44;95903.56;;;20.86;43.16
38225;BME280;24025;48.138;11.428;2022-07-15T07:06:14;95896.25;;;20.83;42.94
38225;BME280;24025;48.138;11.428;2022-07-15T07:08:44;95902.59;;;20.76;43.76
38225;BME280;24025;48.138;11.428;2022-07-15T07:11:18;95906.09;;;20.77;42.20
38225;BME280;24025;48.138;11.428;2022-07-15T07:13:49;95905.66;;;20.78;42.34
38225;BME280;24025;48.138;11.428;2022-07-15T07:16:19;95907.47;;;20.85;42.49
38225;BME280;24025;48.138;11.428;2022-07-15T07:18:50;95902.44;;;20.83;41.98
38225;BME280;24025;48.138;11.428;2022-07-15T07:21:20;95916.06;;;20.80;42.36
38225;BME280;24025;48.138;11.428;2022-07-15T07:23:51;95911.41;;;20.80;42.28
38225;BME280;24025;48.138;11.428;2022-07-15T07:26:22;95913.28;;;20.83;43.25
38225;BME280;24025;48.138;11.428;2022-07-15T07:28:52;95917.13;;;20.86;42.25
38225;BME280;24025;48.138;11.428;2022-07-15T07:31:23;95912.47;;;20.86;42.50
38225;BME280;24025;48.138;11.428;2022-07-15T07:33:57;95920.09;;;20.91;42.23
38225;BME280;24025;48.138;11.428;2022-07-15T07:36:27;95915.00;;;20.93;42.19
38225;BME280;24025;48.138;11.428;2022-07-15T07:38:58;95916.88;;;20.97;42.32
38225;BME280;24025;48.138;11.428;2022-07-15T07:41:28;95918.69;;;21.03;42.56
38225;BME280;24025;48.138;11.428;2022-07-15T07:43:59;95923.53;;;21.12;42.68
38225;BME280;24025;48.138;11.428;2022-07-15T07:46:29;95916.16;;;21.12;42.18
38225;BME280;24025;48.138;11.428;2022-07-15T07:49:01;95910.16;;;21.21;42.38
38225;BME280;24025;48.138;11.428;2022-07-15T07:51:31;95910.06;;;21.25;41.90
38225;BME280;24025;48.138;11.428;2022-07-15T07:54:01;95907.50;;;21.17;41.52
38225;BME280;24025;48.138;11.428;2022-07-15T07:56:32;95902.41;;;21.19;41.94
38225;BME280;24025;48.138;11.428;2022-07-15T07:59:02;95904.88;;;21.14;41.37
38225;BME280;24025;48.138;11.428;2022-07-15T08:01:33;95894.34;;;21.00;41.34
38225;BME280;24025;48.138;11.428;2022-07-15T08:04:05;95897.94;;;21.13;42.20
38225;BME280;24025;48.138;11.428;2022-07-15T08:06:35;95897.66;;;21.07;41.04
38225;BME280;24025;48.138;11.428;2022-07-15T08:09:08;95896.25;;;20.83;41.49
38225;BME280;24025;48.138;11.428;2022-07-15T08:11:38;95897.78;;;20.84;41.72
38225;BME280;24025;48.138;11.428;2022-07-15T08:14:09;95892.22;;;20.91;42.03
38225;BME280;24025;48.138;11.428;2022-07-15T08:16:40;95894.44;;;20.96;42.56
38225;BME280;24025;48.138;11.428;2022-07-15T08:19:13;95888.00;;;21.06;41.46
38225;BME280;24025;48.138;11.428;2022-07-15T08:21:47;95888.53;;;21.17;41.97
38225;BME280;24025;48.138;11.428;2022-07-15T08:24:18;95894.22;;;21.23;41.17
38225;BME280;24025;48.138;11.428;2022-07-15T08:26:48;95898.47;;;21.24;41.28
38225;BME280;24025;48.138;11.428;2022-07-15T08:29:19;95891.28;;;21.34;41.40
38225;BME280;24025;48.138;11.428;2022-07-15T08:31:49;95901.72;;;21.35;41.33
38225;BME280;24025;48.138;11.428;2022-07-15T08:34:20;95892.38;;;21.36;40.68
38225;BME280;24025;48.138;11.428;2022-07-15T08:36:50;95897.31;;;21.41;40.52
38225;BME280;24025;48.138;11.428;2022-07-15T08:39:21;95891.56;;;21.39;41.07
38225;BME280;24025;48.138;11.428;2022-07-15T08:41:52;95888.66;;;21.46;41.51
38225;BME280;24025;48.138;11.428;2022-07-15T08:44:22;95890.53;;;21.33;40.46
38225;BME280;24025;48.138;11.428;2022-07-15T08:46:54;95886.78;;;21.43;40.66
38225;BME280;24025;48.138;11.428;2022-07-15T08:49:28;95888.91;;;21.52;41.50
38225;BME280;24025;48.138;11.428;2022-07-15T08:52:00;95888.06;;;21.55;40.50
38225;BME280;24025;48.138;11.428;2022-07-15T08:54:31;95886.53;;;21.38;40.15
38225;BME280;24025;48.138;11.428;2022-07-15T08:57:02;95884.25;;;21.36;41.02
38225;BME280;24025;48.138;11.428;2022-07-15T08:59:33;95875.72;;;21.18;41.08
38225;BME280;24025;48.138;11.428;2022-07-15T09:02:03;95878.00;;;21.19;40.95
38225;BME280;24025;48.138;11.428;2022-07-15T09:04:35;95883.41;;;21.39;41.30
38225;BME280;24025;48.138;11.428;2022-07-15T09:07:25;95874.59;;;21.52;41.84
38225;BME280;24025;48.138;11.428;2022-07-15T09:09:55;95884.50;;;21.74;41.53
38225;BME280;24025;48.138;11.428;2022-07-15T09:12:26;95879.44;;;21.89;39.81
38225;BME280;24025;48.138;11.428;2022-07-15T09:14:56;95876.88;;;21.98;40.05
38225;BME280;24025;48.138;11.428;2022-07-15T09:17:27;95876.72;;;22.05;39.30
38225;BME280;24025;48.138;11.428;2022-07-15T09:20:02;95878.22;;;22.06;39.86
38225;BME280;24025;48.138;11.428;2022-07-15T09:22:49;95880.28;;;22.19;40.70
38225;BME280;24025;48.138;11.428;2022-07-15T09:25:20;95881.41;;;22.34;40.50
38225;BME280;24025;48.138;11.428;2022-07-15T09:27:51;95873.69;;;22.32;39.19
38225;BME280;24025;48.138;11.428;2022-07-15T09:30:28;95878.78;;;22.30;39.23
38225;BME280;24025;48.138;11.428;2022-07-15T09:33:22;95876.13;;;22.14;38.87
38225;BME280;24025;48.138;11.428;2022-07-15T09:36:14;95888.06;;;22.17;39.05
38225;BME280;24025;48.138;11.428;2022-07-15T09:38:51;95882.13;;;22.05;38.27
38225;BME280;24025;48.138;11.428;2022-07-15T09:41:26;95872.66;;;21.97;39.62
38225;BME280;24025;48.138;11.428;2022-07-15T09:44:02;95875.03;;;21.95;39.62
38225;BME280;24025;48.138;11.428;2022-07-15T09:46:51;95881.56;;;22.14;40.05
38225;BME280;24025;48.138;11.428;2022-07-15T09:52:00;95876.91;;;22.56;38.18
38225;BME280;24025;48.138;11.428;2022-07-15T09:54:34;95881.16;;;22.70;38.36
38225;BME280;24025;48.138;11.428;2022-07-15T09:57:07;95868.47;;;22.80;38.18
38225;BME280;24025;48.138;11.428;2022-07-15T09:59:38;95867.63;;;22.96;38.25
38225;BME280;24025;48.138;11.428;2022-07-15T10:02:09;95871.00;;;23.12;37.50
38225;BME280;24025;48.138;11.428;2022-07-15T10:04:40;95866.31;;;23.26;38.26
38225;BME280;24025;48.138;11.428;2022-07-15T10:07:12;95859.69;;;23.27;37.23
38225;BME280;24025;48.138;11.428;2022-07-15T10:09:43;95857.91;;;23.45;37.22
38225;BME280;24025;48.138;11.428;2022-07-15T10:12:16;95855.25;;;23.67;38.10
38225;BME280;24025;48.138;11.428;2022-07-15T10:26:50;95859.66;;;23.99;35.69
38225;BME280;24025;48.138;11.428;2022-07-15T10:29:29;95851.03;;;24.01;35.55
38225;BME280;24025;48.138;11.428;2022-07-15T10:32:00;95858.50;;;24.10;35.47
38225;BME280;24025;48.138;11.428;2022-07-15T10:34:36;95856.44;;;24.14;35.16
38225;BME280;24025;48.138;11.428;2022-07-15T10:37:09;95858.25;;;24.17;34.49
38225;BME280;24025;48.138;11.428;2022-07-15T10:39:55;95845.69;;;24.32;33.94
38225;BME280;24025;48.138;11.428;2022-07-15T10:42:27;95852.16;;;24.47;34.03
38225;BME280;24025;48.138;11.428;2022-07-15T10:47:28;95851.72;;;24.49;34.61
38225;BME280;24025;48.138;11.428;2022-07-15T10:49:59;95850.59;;;24.46;34.13
38225;BME280;24025;48.138;11.428;2022-07-15T10:52:31;95854.88;;;24.47;34.19
38225;BME280;24025;48.138;11.428;2022-07-15T10:55:05;95847.31;;;24.51;34.48
38225;BME280;24025;48.138;11.428;2022-07-15T11:03:01;95848.78;;;24.65;34.07
38225;BME280;24025;48.138;11.428;2022-07-15T11:05:34;95842.81;;;24.57;33.98
38225;BME280;24025;48.138;11.428;2022-07-15T11:13:48;95835.19;;;25.05;33.48
38225;BME280;24025;48.138;11.428;2022-07-15T11:16:20;95835.69;;;25.22;33.75
38225;BME280;24025;48.138;11.428;2022-07-15T11:18:56;95826.91;;;25.27;33.75
38225;BME280;24025;48.138;11.428;2022-07-15T11:21:29;95830.25;;;25.31;33.81
38225;BME280;24025;48.138;11.428;2022-07-15T11:24:00;95830.50;;;25.15;33.42
38225;BME280;24025;48.138;11.428;2022-07-15T11:26:46;95836.00;;;25.33;32.59
38225;BME280;24025;48.138;11.428;2022-07-15T11:29:17;95825.38;;;25.26;33.02
38225;BME280;24025;48.138;11.428;2022-07-15T11:31:48;95820.81;;;25.23;33.63
38225;BME280;24025;48.138;11.428;2022-07-15T11:34:19;95814.03;;;24.97;33.45
38225;BME280;24025;48.138;11.428;2022-07-15T11:37:00;95815.84;;;25.31;33.34
38225;BME280;24025;48.138;11.428;2022-07-15T11:39:30;95816.28;;;25.29;32.58
38225;BME280;24025;48.138;11.428;2022-07-15T11:42:00;95813.53;;;25.20;33.20
38225;BME280;24025;48.138;11.428;2022-07-15T11:44:51;95815.56;;;25.38;33.96
38225;BME280;24025;48.138;11.428;2022-07-15T11:47:21;95809.06;;;25.45;32.82
38225;BME280;24025;48.138;11.428;2022-07-15T11:49:55;95810.88;;;25.48;32.59
38225;BME280;24025;48.138;11.428;2022-07-15T11:52:28;95800.94;;;25.23;33.06
38225;BME280;24025;48.138;11.428;2022-07-15T11:54:58;95806.75;;;25.43;32.90
38225;BME280;24025;48.138;11.428;2022-07-15T11:57:33;95807.22;;;25.51;32.48
38225;BME280;24025;48.138;11.428;2022-07-15T12:00:04;95803.59;;;25.54;32.32
38225;BME280;24025;48.138;11.428;2022-07-15T12:02:35;95794.69;;;25.72;31.94
38225;BME280;24025;48.138;11.428;2022-07-15T12:05:07;95793.78;;;25.84;32.27
38225;BME280;24025;48.138;11.428;2022-07-15T12:07:42;95789.66;;;26.07;31.67
38225;BME280;24025;48.138;11.428;2022-07-15T12:10:14;95791.13;;;26.35;32.10
38225;BME280;24025;48.138;11.428;2022-07-15T12:12:55;95780.94;;;26.36;30.91
38225;BME280;24025;48.138;11.428;2022-07-15T12:15:27;95779.41;;;26.53;30.92
38225;BME280;24025;48.138;11.428;2022-07-15T12:17:58;95781.63;;;26.73;30.38
38225;BME280;24025;48.138;11.428;2022-07-15T12:20:29;95773.31;;;26.91;30.49
38225;BME280;24025;48.138;11.428;2022-07-15T12:23:08;95771.91;;;26.72;31.00
38225;BME280;24025;48.138;11.428;2022-07-15T12:25:39;95769.50;;;26.56;29.89
38225;BME280;24025;48.138;11.428;2022-07-15T12:28:10;95768.97;;;26.42;30.24
38225;BME280;24025;48.138;11.428;2022-07-15T12:30:40;95767.06;;;26.58;30.41
38225;BME280;24025;48.138;11.428;2022-07-15T12:33:19;95759.63;;;26.91;31.17
38225;BME280;24025;48.138;11.428;2022-07-15T12:35:50;95759.84;;;27.12;29.84
38225;BME280;24025;48.138;11.428;2022-07-15T12:38:40;95755.13;;;27.12;29.55
38225;BME280;24025;48.138;11.428;2022-07-15T12:41:23;95766.41;;;26.72;29.46
38225;BME280;24025;48.138;11.428;2022-07-15T12:43:56;95762.72;;;26.84;29.84
38225;BME280;24025;48.138;11.428;2022-07-15T12:49:51;95754.25;;;27.54;29.59
38225;BME280;24025;48.138;11.428;2022-07-15T12:55:18;95759.34;;;27.22;29.24
38225;BME280;24025;48.138;11.428;2022-07-15T12:57:50;95753.56;;;27.44;29.03
38225;BME280;24025;48.138;11.428;2022-07-15T13:00:23;95750.66;;;27.48;29.34
38225;BME280;24025;48.138;11.428;2022-07-15T13:02:55;95751.22;;;27.76;28.38
38225;BME280;24025;48.138;11.428;2022-07-15T13:05:32;95754.09;;;27.96;28.27
38225;BME280;24025;48.138;11.428;2022-07-15T13:08:05;95742.66;;;27.98;28.49
38225;BME280;24025;48.138;11.428;2022-07-15T13:10:37;95759.38;;;27.85;28.19
38225;BME280;24025;48.138;11.428;2022-07-15T13:13:09;95747.63;;;27.70;28.33
38225;BME280;24025;48.138;11.428;2022-07-15T13:15:40;95747.72;;;27.75;28.34
38225;BME280;24025;48.138;11.428;2022-07-15T13:18:11;95740.44;;;27.72;28.73
38225;BME280;24025;48.138;11.428;2022-07-15T13:20:42;95752.66;;;27.62;28.76
38225;BME280;24025;48.138;11.428;2022-07-15T13:23:13;95755.00;;;27.54;28.70
38225;BME280;24025;48.138;11.428;2022-07-15T13:25:44;95744.91;;;27.84;28.61
38225;BME280;24025;48.138;11.428;2022-07-15T13:28:15;95744.63;;;28.27;28.31
38225;BME280;24025;48.138;11.428;2022-07-15T13:30:45;95742.19;;;28.43;27.32
38225;BME280;24025;48.138;11.428;2022-07-15T13:33:16;95738.69;;;28.28;27.39
38225;BME280;24025;48.138;11.428;2022-07-15T13:35:47;95742.06;;;28.08;27.72
38225;BME280;24025;48.138;11.428;2022-07-15T13:38:17;95732.44;;;28.28;27.72
38225;BME280;24025;48.138;11.428;2022-07-15T13:40:48;95737.94;;;28.57;27.25
38225;BME280;24025;48.138;11.428;2022-07-15T13:43:18;95730.69;;;28.74;26.48
38225;BME280;24025;48.138;11.428;2022-07-15T13:45:49;95725.13;;;28.69;27.11
38225;BME280;24025;48.138;11.428;2022-07-15T13:48:19;95732.81;;;28.65;26.95